createdAt,value
2018-09-25T00:00:20.333Z,8.80
2018-09-25T00:02:54.592Z,8.80
2018-09-25T00:05:28.936Z,8.80
2018-09-25T00:08:03.275Z,8.80
2018-09-25T00:10:37.960Z,8.70
2018-09-25T00:13:12.283Z,8.70
2018-09-25T00:15:46.688Z,8.80
2018-09-25T00:18:21.074Z,8.80
2018-09-25T00:20:55.362Z,8.70
2018-09-25T00:23:29.843Z,8.70
2018-09-25T00:26:04.101Z,8.70
2018-09-25T00:28:38.604Z,8.60
2018-09-25T00:31:13.007Z,8.60
2018-09-25T00:33:47.383Z,8.70
2018-09-25T00:36:22.080Z,8.70
2018-09-25T00:38:56.443Z,8.70
2018-09-25T00:41:30.871Z,8.70
2018-09-25T00:44:05.349Z,8.70
2018-09-25T00:46:39.851Z,8.70
2018-09-25T00:49:14.173Z,8.60
2018-09-25T00:51:48.482Z,8.60
2018-09-25T00:54:22.834Z,8.60
2018-09-25T00:56:57.237Z,8.60
2018-09-25T00:59:31.970Z,8.50
2018-09-25T01:02:06.286Z,8.50
2018-09-25T01:04:40.624Z,8.40
2018-09-25T01:07:14.888Z,8.40
2018-09-25T01:09:49.314Z,8.40
2018-09-25T01:12:23.704Z,8.50
2018-09-25T01:14:57.956Z,8.50
2018-09-25T01:17:32.267Z,8.40
2018-09-25T01:20:06.585Z,8.40
2018-09-25T01:22:41.006Z,8.30
2018-09-25T01:25:15.452Z,8.30
2018-09-25T01:27:49.807Z,8.30
2018-09-25T01:30:24.089Z,8.20
2018-09-25T01:32:58.470Z,8.20
2018-09-25T01:35:32.870Z,8.20
2018-09-25T01:38:07.481Z,8.20
2018-09-25T01:40:41.814Z,8.30
2018-09-25T01:43:16.180Z,8.30
2018-09-25T01:45:50.790Z,8.30
2018-09-25T01:48:25.349Z,8.30
2018-09-25T01:50:59.664Z,8.20
2018-09-25T01:53:34.022Z,8.20
2018-09-25T01:56:08.331Z,8.10
2018-09-25T01:58:42.857Z,8.10
2018-09-25T02:01:17.259Z,8.10
2018-09-25T02:03:51.559Z,8.00
2018-09-25T02:06:25.862Z,7.90
2018-09-25T02:09:00.562Z,7.80
2018-09-25T02:11:34.804Z,7.80
2018-09-25T02:14:09.145Z,7.80
2018-09-25T02:16:43.710Z,7.70
2018-09-25T02:19:18.016Z,7.70
2018-09-25T02:21:52.357Z,7.70
2018-09-25T02:24:26.756Z,7.70
2018-09-25T02:27:01.124Z,7.70
2018-09-25T02:29:35.538Z,7.60
2018-09-25T02:32:09.906Z,7.50
2018-09-25T02:34:44.450Z,7.50
2018-09-25T02:37:18.778Z,7.50
2018-09-25T02:39:53.232Z,7.50
2018-09-25T02:42:27.705Z,7.50
2018-09-25T02:45:01.905Z,7.50
2018-09-25T02:47:36.297Z,7.40
2018-09-25T02:50:10.666Z,7.40
2018-09-25T02:52:45.249Z,7.40
2018-09-25T02:55:19.676Z,7.40
2018-09-25T02:57:54.126Z,7.30
2018-09-25T03:00:28.522Z,7.30
2018-09-25T03:03:02.979Z,7.30
2018-09-25T03:05:37.284Z,7.30
2018-09-25T03:08:12.410Z,7.40
2018-09-25T03:10:46.713Z,7.40
2018-09-25T03:13:21.182Z,7.40
2018-09-25T03:15:55.485Z,7.40
2018-09-25T03:18:29.831Z,7.40
2018-09-25T03:21:04.330Z,7.50
2018-09-25T03:23:38.932Z,7.50
2018-09-25T03:26:13.556Z,7.40
2018-09-25T03:28:48.009Z,7.50
2018-09-25T03:31:22.341Z,7.40
2018-09-25T03:33:56.680Z,7.30
2018-09-25T03:36:31.069Z,7.30
2018-09-25T03:39:05.381Z,7.30
2018-09-25T03:41:39.823Z,7.30
2018-09-25T03:44:14.160Z,7.20
2018-09-25T03:46:48.575Z,7.30
2018-09-25T03:49:22.993Z,7.30
2018-09-25T03:51:57.494Z,7.40
2018-09-25T03:54:31.929Z,7.30
2018-09-25T03:57:06.397Z,7.30
2018-09-25T03:59:40.912Z,7.30
2018-09-25T04:02:15.479Z,7.20
2018-09-25T04:04:49.728Z,7.20
2018-09-25T04:07:24.208Z,7.20
2018-09-25T04:09:58.711Z,7.10
2018-09-25T04:12:33.081Z,7.20
2018-09-25T04:15:07.374Z,7.10
2018-09-25T04:17:41.697Z,7.10
2018-09-25T04:20:16.208Z,7.10
2018-09-25T04:22:50.613Z,7.10
2018-09-25T04:25:24.928Z,7.10
2018-09-25T04:27:59.357Z,7.10
2018-09-25T04:30:34.299Z,7.00
2018-09-25T04:33:08.730Z,7.00
2018-09-25T04:35:43.218Z,7.00
2018-09-25T04:38:17.452Z,7.10
2018-09-25T04:40:51.984Z,7.10
2018-09-25T04:43:26.383Z,7.20
2018-09-25T04:46:00.833Z,7.20
2018-09-25T04:48:35.231Z,7.00
2018-09-25T04:51:09.669Z,7.00
2018-09-25T04:53:44.088Z,7.00
2018-09-25T04:56:18.405Z,6.90
2018-09-25T04:58:52.827Z,6.80
2018-09-25T05:01:27.210Z,6.80
2018-09-25T05:04:01.736Z,6.80
2018-09-25T05:06:36.241Z,6.80
2018-09-25T05:09:12.658Z,6.80
2018-09-25T05:11:47.084Z,6.80
2018-09-25T05:14:21.374Z,6.80
2018-09-25T05:16:55.695Z,6.70
2018-09-25T05:19:30.008Z,6.70
2018-09-25T05:22:04.531Z,6.70
2018-09-25T05:24:38.928Z,6.70
2018-09-25T05:27:13.668Z,6.70
2018-09-25T05:29:48.152Z,6.60
2018-09-25T05:32:22.692Z,6.70
2018-09-25T05:34:57.003Z,6.70
2018-09-25T05:37:31.365Z,6.70
2018-09-25T05:40:05.774Z,6.70
2018-09-25T05:42:40.254Z,6.80
2018-09-25T05:45:15.452Z,6.80
2018-09-25T05:47:49.950Z,6.80
2018-09-25T05:50:24.437Z,6.80
2018-09-25T05:52:58.889Z,6.80
2018-09-25T05:55:33.404Z,6.80
2018-09-25T05:58:07.996Z,6.90
2018-09-25T06:00:42.395Z,7.00
2018-09-25T06:03:16.845Z,7.10
2018-09-25T06:05:51.266Z,7.00
2018-09-25T06:08:25.599Z,7.00
2018-09-25T06:10:59.818Z,7.00
2018-09-25T06:13:34.268Z,7.00
2018-09-25T06:16:08.804Z,7.00
2018-09-25T06:18:43.170Z,7.10
2018-09-25T06:21:17.899Z,7.00
2018-09-25T06:23:52.618Z,7.00
2018-09-25T06:26:26.825Z,7.00
2018-09-25T06:29:01.410Z,7.20
2018-09-25T06:31:35.843Z,7.20
2018-09-25T06:34:10.214Z,7.30
2018-09-25T06:36:45.024Z,7.20
2018-09-25T06:39:19.905Z,7.20
2018-09-25T06:41:54.620Z,7.10
2018-09-25T06:44:28.977Z,7.00
2018-09-25T06:47:03.480Z,7.10
2018-09-25T06:49:38.427Z,7.00
2018-09-25T06:52:12.788Z,7.10
2018-09-25T06:54:47.533Z,7.10
2018-09-25T06:57:22.129Z,7.10
2018-09-25T06:59:56.486Z,7.10
2018-09-25T07:02:30.953Z,7.00
2018-09-25T07:05:05.344Z,7.10
2018-09-25T07:07:39.845Z,7.30
2018-09-25T07:10:14.759Z,7.30
2018-09-25T07:12:49.542Z,7.20
2018-09-25T07:15:24.096Z,7.30
2018-09-25T07:17:58.715Z,7.40
2018-09-25T07:20:33.142Z,7.50
2018-09-25T07:23:07.460Z,7.50
2018-09-25T07:25:41.856Z,7.70
2018-09-25T07:28:16.508Z,7.70
2018-09-25T07:30:50.850Z,7.80
2018-09-25T07:33:25.435Z,7.70
2018-09-25T07:35:59.775Z,7.70
2018-09-25T07:38:34.107Z,7.60
2018-09-25T07:41:08.445Z,7.70
2018-09-25T07:43:42.866Z,7.90
2018-09-25T07:46:17.161Z,7.90
2018-09-25T07:48:51.379Z,7.90
2018-09-25T07:51:26.076Z,8.00
2018-09-25T07:54:00.407Z,8.00
2018-09-25T07:56:34.818Z,7.90
2018-09-25T07:59:09.310Z,8.10
2018-09-25T08:01:43.818Z,8.20
2018-09-25T08:04:18.153Z,8.20
2018-09-25T08:06:52.548Z,8.30
2018-09-25T08:09:26.979Z,8.50
2018-09-25T08:12:01.423Z,8.60
2018-09-25T08:14:35.955Z,8.70
2018-09-25T08:17:10.263Z,8.70
2018-09-25T08:19:45.449Z,8.70
2018-09-25T08:22:20.011Z,8.80
2018-09-25T08:24:54.751Z,8.80
2018-09-25T08:27:29.169Z,8.90
2018-09-25T08:30:03.658Z,9.10
2018-09-25T08:32:37.976Z,9.20
2018-09-25T08:35:12.312Z,9.40
2018-09-25T08:37:46.858Z,9.50
2018-09-25T08:40:21.295Z,9.60
2018-09-25T08:42:55.773Z,9.70
2018-09-25T08:45:30.784Z,9.80
2018-09-25T08:48:05.307Z,9.90
2018-09-25T08:50:39.942Z,10.10
2018-09-25T08:53:14.261Z,10.30
2018-09-25T08:55:48.701Z,10.50
2018-09-25T08:58:25.505Z,10.50
2018-09-25T09:00:59.939Z,10.50
2018-09-25T09:03:34.583Z,10.80
2018-09-25T09:06:08.912Z,10.90
2018-09-25T09:08:43.431Z,11.20
2018-09-25T09:11:18.122Z,11.40
2018-09-25T09:13:52.612Z,11.60
2018-09-25T09:16:27.112Z,11.70
2018-09-25T09:19:01.696Z,11.90
2018-09-25T09:21:36.287Z,12.10
2018-09-25T09:24:10.666Z,12.20
2018-09-25T09:26:44.860Z,12.40
2018-09-25T09:29:19.221Z,12.50
2018-09-25T09:31:53.677Z,12.60
2018-09-25T09:34:28.291Z,12.70
2018-09-25T09:37:03.054Z,13.00
2018-09-25T09:39:37.481Z,13.30
2018-09-25T09:42:12.303Z,13.30
2018-09-25T09:44:46.766Z,13.30
2018-09-25T09:47:20.915Z,13.30
2018-09-25T09:49:56.715Z,13.40
2018-09-25T09:52:30.974Z,13.90
2018-09-25T09:55:05.196Z,14.20
2018-09-25T09:57:39.643Z,14.50
2018-09-25T10:00:14.719Z,14.60
2018-09-25T10:02:49.224Z,14.50
2018-09-25T10:05:24.173Z,14.60
2018-09-25T10:07:58.387Z,14.40
2018-09-25T10:10:32.840Z,14.30
2018-09-25T10:13:07.105Z,14.40
2018-09-25T10:15:41.502Z,14.60
2018-09-25T10:18:15.825Z,14.80
2018-09-25T10:20:50.371Z,14.90
2018-09-25T10:23:24.831Z,15.10
2018-09-25T10:25:59.405Z,15.20
2018-09-25T10:28:33.792Z,15.40
2018-09-25T10:31:08.357Z,15.20
2018-09-25T10:33:42.894Z,15.60
2018-09-25T10:36:17.289Z,15.90
2018-09-25T10:38:51.704Z,16.10
2018-09-25T10:41:26.289Z,16.40
2018-09-25T10:44:00.687Z,16.50
2018-09-25T10:46:34.866Z,16.70
2018-09-25T10:49:09.395Z,16.70
2018-09-25T10:51:43.740Z,17.00
2018-09-25T10:54:18.031Z,17.40
2018-09-25T10:56:52.553Z,19.60
2018-09-25T10:59:26.866Z,22.90
2018-09-25T11:02:01.422Z,25.20
2018-09-25T11:04:35.983Z,26.30
2018-09-25T11:07:10.483Z,27.00
2018-09-25T11:09:45.172Z,26.30
2018-09-25T11:12:19.901Z,27.60
2018-09-25T11:14:54.405Z,28.80
2018-09-25T11:17:28.884Z,28.90
2018-09-25T11:20:03.328Z,28.90
2018-09-25T11:22:38.056Z,29.10
2018-09-25T11:25:12.957Z,30.00
2018-09-25T11:27:47.391Z,30.10
2018-09-25T11:30:21.832Z,29.50
2018-09-25T11:32:56.823Z,30.20
2018-09-25T11:35:32.037Z,30.50
2018-09-25T11:38:06.567Z,29.20
2018-09-25T11:40:40.982Z,27.10
2018-09-25T11:43:15.576Z,26.30
2018-09-25T11:45:50.115Z,26.80
2018-09-25T11:48:24.653Z,27.30
2018-09-25T11:50:59.665Z,28.80
2018-09-25T11:53:34.294Z,29.00
2018-09-25T11:56:08.674Z,27.10
2018-09-25T11:58:43.095Z,26.10
2018-09-25T12:01:17.577Z,26.30
2018-09-25T12:03:52.447Z,27.40
2018-09-25T12:06:27.408Z,28.60
2018-09-25T12:09:02.181Z,28.80
2018-09-25T12:11:37.180Z,30.10
2018-09-25T12:14:12.349Z,30.60
2018-09-25T12:16:48.661Z,31.50
2018-09-25T12:19:23.802Z,31.90
2018-09-25T12:21:58.915Z,31.20
2018-09-25T12:24:33.695Z,29.10
2018-09-25T12:27:08.781Z,26.80
2018-09-25T12:29:43.656Z,26.80
2018-09-25T12:32:18.456Z,28.20
2018-09-25T12:34:53.379Z,29.30
2018-09-25T12:37:28.415Z,29.00
2018-09-25T12:40:03.149Z,30.40
2018-09-25T12:42:38.173Z,31.30
2018-09-25T12:45:13.106Z,31.40
2018-09-25T12:47:48.107Z,31.90
2018-09-25T12:50:23.164Z,31.40
2018-09-25T12:52:58.114Z,32.50
2018-09-25T12:55:33.120Z,32.30
2018-09-25T12:58:08.217Z,32.50
2018-09-25T13:00:43.316Z,33.70
2018-09-25T13:03:18.131Z,32.00
2018-09-25T13:05:53.157Z,33.30
2018-09-25T13:08:28.234Z,33.40
2018-09-25T13:11:03.078Z,32.80
2018-09-25T13:13:37.957Z,32.70
2018-09-25T13:16:13.748Z,32.70
2018-09-25T13:18:48.573Z,33.00
2018-09-25T13:21:23.496Z,33.10
2018-09-25T13:23:58.514Z,32.90
2018-09-25T13:26:33.735Z,33.00
2018-09-25T13:29:08.616Z,32.90
2018-09-25T13:31:43.420Z,31.00
2018-09-25T13:34:18.825Z,31.60
2018-09-25T13:36:53.709Z,32.10
2018-09-25T13:39:28.820Z,32.70
2018-09-25T13:42:12.248Z,32.50
2018-09-25T13:44:47.271Z,32.30
2018-09-25T13:47:22.316Z,32.70
2018-09-25T13:49:57.323Z,33.00
2018-09-25T13:52:32.400Z,33.60
2018-09-25T13:55:07.529Z,34.00
2018-09-25T13:57:42.612Z,33.60
2018-09-25T14:00:18.003Z,32.80
2018-09-25T14:02:53.026Z,32.10
2018-09-25T14:05:28.077Z,32.20
2018-09-25T14:08:03.184Z,32.50
2018-09-25T14:10:38.338Z,32.90
2018-09-25T14:13:13.322Z,32.90
2018-09-25T14:15:48.308Z,33.70
2018-09-25T14:18:23.304Z,34.40
2018-09-25T14:20:58.224Z,34.30
2018-09-25T14:23:33.302Z,33.60
2018-09-25T14:26:07.848Z,33.90
2018-09-25T14:28:42.851Z,33.80
2018-09-25T14:31:18.043Z,32.80
2018-09-25T14:33:52.922Z,31.20
2018-09-25T14:36:28.291Z,30.90
2018-09-25T14:39:03.263Z,31.40
2018-09-25T14:41:38.282Z,30.80
2018-09-25T14:44:13.235Z,31.10
2018-09-25T14:46:48.245Z,31.30
2018-09-25T14:49:23.153Z,31.80
2018-09-25T14:51:57.986Z,31.40
2018-09-25T14:54:33.315Z,31.50
2018-09-25T14:57:08.371Z,31.10
2018-09-25T14:59:43.276Z,31.40
2018-09-25T15:02:18.215Z,31.40
2018-09-25T15:04:53.225Z,32.00
2018-09-25T15:07:28.342Z,31.80
2018-09-25T15:10:03.194Z,30.70
2018-09-25T15:12:38.214Z,30.20
2018-09-25T15:15:13.342Z,30.70
2018-09-25T15:17:48.349Z,30.50
2018-09-25T15:20:23.258Z,30.20
2018-09-25T15:22:58.293Z,30.00
2018-09-25T15:25:33.280Z,30.00
2018-09-25T15:28:08.163Z,29.60
2018-09-25T15:30:43.249Z,29.60
2018-09-25T15:33:18.322Z,29.20
2018-09-25T15:35:53.727Z,28.20
2018-09-25T15:38:28.739Z,28.20
2018-09-25T15:41:03.754Z,28.40
2018-09-25T15:43:38.922Z,28.10
2018-09-25T15:46:13.945Z,27.90
2018-09-25T15:48:48.875Z,27.40
2018-09-25T15:51:24.300Z,26.70
2018-09-25T15:53:58.668Z,26.00
2018-09-25T15:56:33.066Z,24.80
2018-09-25T15:59:07.537Z,23.80
2018-09-25T16:01:41.977Z,22.50
2018-09-25T16:04:16.642Z,21.40
2018-09-25T16:06:51.223Z,20.50
2018-09-25T16:09:25.847Z,19.80
2018-09-25T16:12:00.398Z,19.30
2018-09-25T16:14:34.774Z,18.90
2018-09-25T16:17:09.177Z,18.60
2018-09-25T16:19:43.694Z,18.40
2018-09-25T16:22:18.296Z,18.10
2018-09-25T16:24:52.804Z,17.90
2018-09-25T16:27:27.162Z,17.70
2018-09-25T16:30:01.500Z,17.60
2018-09-25T16:32:36.069Z,17.40
2018-09-25T16:35:10.770Z,17.30
2018-09-25T16:37:45.283Z,17.20
2018-09-25T16:40:19.750Z,17.00
2018-09-25T16:42:54.066Z,17.00
2018-09-25T16:45:28.491Z,16.90
2018-09-25T16:48:02.897Z,16.70
2018-09-25T16:50:37.202Z,16.70
2018-09-25T16:53:11.528Z,16.50
2018-09-25T16:55:45.862Z,16.50
2018-09-25T16:58:20.232Z,16.40
2018-09-25T17:00:54.523Z,16.30
2018-09-25T17:03:28.966Z,16.20
2018-09-25T17:06:03.492Z,16.10
2018-09-25T17:08:38.388Z,16.00
2018-09-25T17:11:12.915Z,15.90
2018-09-25T17:13:47.355Z,15.80
2018-09-25T17:16:21.869Z,15.70
2018-09-25T17:18:56.467Z,15.60
2018-09-25T17:21:30.781Z,15.50
2018-09-25T17:24:05.401Z,15.40
2018-09-25T17:26:40.093Z,15.30
2018-09-25T17:29:14.804Z,15.10
2018-09-25T17:31:49.589Z,15.00
2018-09-25T17:34:23.950Z,14.80
2018-09-25T17:36:58.257Z,14.70
2018-09-25T17:39:32.594Z,14.50
2018-09-25T17:42:07.124Z,14.40
2018-09-25T17:44:41.545Z,14.20
2018-09-25T17:47:16.261Z,14.20
2018-09-25T17:49:50.666Z,14.10
2018-09-25T17:52:25.137Z,14.00
2018-09-25T17:54:59.464Z,13.90
2018-09-25T17:57:33.829Z,13.80
2018-09-25T18:00:08.842Z,13.70
2018-09-25T18:02:43.255Z,13.50
2018-09-25T18:05:17.585Z,13.40
2018-09-25T18:07:52.326Z,13.20
2018-09-25T18:10:26.770Z,13.20
2018-09-25T18:13:01.120Z,13.10
2018-09-25T18:15:35.577Z,13.00
2018-09-25T18:18:10.187Z,13.00
2018-09-25T18:20:44.560Z,12.90
2018-09-25T18:23:19.055Z,12.90
2018-09-25T18:25:53.262Z,12.80
2018-09-25T18:28:27.779Z,12.80
2018-09-25T18:31:02.245Z,12.80
2018-09-25T18:33:36.696Z,12.70
2018-09-25T18:36:11.263Z,12.70
2018-09-25T18:38:45.605Z,12.70
2018-09-25T18:41:19.921Z,12.60
2018-09-25T18:43:54.428Z,12.60
2018-09-25T18:46:28.939Z,12.50
2018-09-25T18:49:03.353Z,12.40
2018-09-25T18:51:37.809Z,12.40
2018-09-25T18:54:12.231Z,12.30
2018-09-25T18:56:46.711Z,12.30
2018-09-25T18:59:21.273Z,12.20
2018-09-25T19:01:55.933Z,12.20
2018-09-25T19:04:30.664Z,12.20
2018-09-25T19:07:05.101Z,12.20
2018-09-25T19:09:39.402Z,12.20
2018-09-25T19:12:14.299Z,12.10
2018-09-25T19:14:48.743Z,12.00
2018-09-25T19:17:23.234Z,11.90
2018-09-25T19:19:57.531Z,11.90
2018-09-25T19:22:31.906Z,11.80
2018-09-25T19:25:06.309Z,11.70
2018-09-25T19:27:40.794Z,11.60
2018-09-25T19:30:15.454Z,11.60
2018-09-25T19:32:49.890Z,11.50
2018-09-25T19:35:24.263Z,11.50
2018-09-25T19:37:58.857Z,11.40
2018-09-25T19:40:33.345Z,11.40
2018-09-25T19:43:07.680Z,11.30
2018-09-25T19:45:41.871Z,11.30
2018-09-25T19:48:16.230Z,11.20
2018-09-25T19:50:50.821Z,11.10
2018-09-25T19:53:25.131Z,11.20
2018-09-25T19:55:59.517Z,11.10
2018-09-25T19:58:33.877Z,11.10
2018-09-25T20:01:08.433Z,11.00
2018-09-25T20:03:42.896Z,11.00
2018-09-25T20:06:17.510Z,11.00
2018-09-25T20:08:51.776Z,10.90
2018-09-25T20:11:26.268Z,10.90
2018-09-25T20:14:00.703Z,10.90
2018-09-25T20:16:35.175Z,10.80
2018-09-25T20:19:09.514Z,10.80
2018-09-25T20:21:43.972Z,10.70
2018-09-25T20:24:18.663Z,10.60
2018-09-25T20:26:53.200Z,10.60
2018-09-25T20:29:27.638Z,10.60
2018-09-25T20:32:09.434Z,10.60
2018-09-25T20:34:43.903Z,10.60
2018-09-25T20:37:18.244Z,10.50
2018-09-25T20:39:52.851Z,10.50
2018-09-25T20:42:27.232Z,10.50
2018-09-25T20:45:01.617Z,10.50
2018-09-25T20:47:36.070Z,10.50
2018-09-25T20:50:10.683Z,10.40
2018-09-25T20:52:45.053Z,10.30
2018-09-25T20:55:19.489Z,10.20
2018-09-25T20:57:54.115Z,10.10
2018-09-25T21:00:28.543Z,10.10
2018-09-25T21:03:02.844Z,10.10
2018-09-25T21:05:37.229Z,10.10
2018-09-25T21:08:11.903Z,10.10
2018-09-25T21:10:46.273Z,10.10
2018-09-25T21:13:20.739Z,10.00
2018-09-25T21:15:55.225Z,10.00
2018-09-25T21:18:29.620Z,10.00
2018-09-25T21:21:04.157Z,10.00
2018-09-25T21:23:38.581Z,10.00
2018-09-25T21:26:13.140Z,10.00
2018-09-25T21:28:47.690Z,9.90
2018-09-25T21:31:21.928Z,9.90
2018-09-25T21:33:56.419Z,9.80
2018-09-25T21:36:30.639Z,9.80
2018-09-25T21:39:05.275Z,9.80
2018-09-25T21:41:39.862Z,9.80
2018-09-25T21:44:14.383Z,9.70
2018-09-25T21:46:48.742Z,9.60
2018-09-25T21:49:23.008Z,9.60
2018-09-25T21:51:57.538Z,9.60
2018-09-25T21:54:32.033Z,9.50
2018-09-25T21:57:06.479Z,9.50
2018-09-25T21:59:40.903Z,9.50
2018-09-25T22:02:15.252Z,9.50
2018-09-25T22:04:49.716Z,9.50
2018-09-25T22:07:24.125Z,9.40
2018-09-25T22:09:58.856Z,9.30
2018-09-25T22:12:33.089Z,9.30
2018-09-25T22:15:07.312Z,9.20
2018-09-25T22:17:41.826Z,9.20
2018-09-25T22:20:16.183Z,9.20
2018-09-25T22:22:50.604Z,9.20
2018-09-25T22:25:24.911Z,9.10
2018-09-25T22:27:59.362Z,9.20
2018-09-25T22:30:33.561Z,9.20
2018-09-25T22:33:08.089Z,9.20
2018-09-25T22:35:42.479Z,9.10
2018-09-25T22:38:16.841Z,9.00
2018-09-25T22:40:51.208Z,9.00
2018-09-25T22:43:25.716Z,8.90
2018-09-25T22:46:00.075Z,8.90
2018-09-25T22:48:34.344Z,8.90
2018-09-25T22:51:08.755Z,8.90
2018-09-25T22:53:43.252Z,8.90
2018-09-25T22:56:17.652Z,8.80
2018-09-25T22:58:51.990Z,8.70
2018-09-25T23:01:26.366Z,8.80
2018-09-25T23:04:00.711Z,8.70
2018-09-25T23:06:35.263Z,8.70
2018-09-25T23:09:11.531Z,8.60
2018-09-25T23:11:45.837Z,8.60
2018-09-25T23:14:20.155Z,8.60
2018-09-25T23:16:54.593Z,8.60
2018-09-25T23:19:29.180Z,8.50
2018-09-25T23:22:03.653Z,8.60
2018-09-25T23:24:38.097Z,8.60
2018-09-25T23:27:12.476Z,8.50
2018-09-25T23:29:46.987Z,8.50
2018-09-25T23:32:21.376Z,8.40
2018-09-25T23:34:55.720Z,8.40
2018-09-25T23:37:30.094Z,8.40
2018-09-25T23:40:04.470Z,8.40
2018-09-25T23:42:56.728Z,8.30
2018-09-25T23:45:30.762Z,8.30
2018-09-25T23:48:05.056Z,8.20
2018-09-25T23:50:41.220Z,8.20
2018-09-25T23:53:15.371Z,8.20
2018-09-25T23:55:50.811Z,8.20
2018-09-25T23:58:26.523Z,8.20
